createdAt,value
2024-02-02T00:03:37.538Z,1026
2024-02-02T00:13:30.476Z,1025.9
2024-02-02T00:19:41.244Z,1025.8
2024-02-02T00:23:31.633Z,1025.7
2024-02-02T00:28:28.193Z,1025.6
2024-02-02T00:30:56.448Z,1025.6
2024-02-02T00:35:28.401Z,1025.4
2024-02-02T00:39:10.867Z,1025.3
2024-02-02T00:42:53.204Z,1025.3
2024-02-02T00:49:04.088Z,1025.3
2024-02-02T00:50:18.015Z,1025.2
2024-02-02T00:52:54.474Z,1025.2
2024-02-02T00:55:22.718Z,1025.1
2024-02-02T00:59:05.144Z,1025
2024-02-02T01:02:47.583Z,1025
2024-02-02T01:04:01.662Z,1025.1
2024-02-02T01:07:44.054Z,1025.2
2024-02-02T01:08:58.221Z,1025.1
2024-02-02T01:12:40.581Z,1025.1
2024-02-02T01:17:37.090Z,1025
2024-02-02T01:18:51.429Z,1024.9
2024-02-02T01:22:33.612Z,1024.9
2024-02-02T01:23:47.803Z,1024.9
2024-02-02T01:27:30.201Z,1024.9
2024-02-02T01:28:44.304Z,1024.9
2024-02-02T01:33:40.901Z,1024.9
2024-02-02T01:37:23.253Z,1024.8
2024-02-02T01:38:37.347Z,1024.8
2024-02-02T01:41:05.633Z,1024.8
2024-02-02T01:43:33.898Z,1024.9
2024-02-02T01:46:59.965Z,1024.8
2024-02-02T01:49:28.277Z,1024.9
2024-02-02T01:53:10.561Z,1024.9
2024-02-02T01:54:24.877Z,1024.8
2024-02-02T01:58:07.083Z,1024.7
2024-02-02T01:59:21.242Z,1024.7
2024-02-02T02:03:03.812Z,1024.7
2024-02-02T02:08:00.137Z,1024.6
2024-02-02T02:11:42.563Z,1024.6
2024-02-02T02:16:39.166Z,1024.6
2024-02-02T02:21:35.663Z,1024.7
2024-02-02T02:24:03.945Z,1024.6
2024-02-02T02:26:32.155Z,1024.6
2024-02-02T02:31:28.765Z,1024.6
2024-02-02T02:36:25.705Z,1024.7
2024-02-02T02:38:53.538Z,1024.7
2024-02-02T02:42:35.959Z,1024.7
2024-02-02T02:47:32.494Z,1024.8
2024-02-02T02:48:46.676Z,1024.6
2024-02-02T02:51:14.812Z,1024.6
2024-02-02T02:53:43.095Z,1024.6
2024-02-02T02:56:11.364Z,1024.6
2024-02-02T03:01:07.904Z,1024.7
2024-02-02T03:03:36.281Z,1024.7
2024-02-02T03:06:04.497Z,1024.8
2024-02-02T03:08:32.710Z,1024.7
2024-02-02T03:13:12.830Z,1024.4
2024-02-02T03:15:41.192Z,1024.4
2024-02-02T03:20:37.642Z,1024.3
2024-02-02T03:21:51.787Z,1024.3
2024-02-02T03:25:34.165Z,1024.2
2024-02-02T03:26:48.298Z,1024.1
2024-02-02T03:30:30.728Z,1024.1
2024-02-02T03:35:27.278Z,1024.1
2024-02-02T03:36:41.357Z,1024.1
2024-02-02T03:40:23.814Z,1024.1
2024-02-02T03:42:52.043Z,1024
2024-02-02T03:45:20.359Z,1024
2024-02-02T03:46:34.430Z,1023.3
2024-02-02T03:50:16.880Z,1024
2024-02-02T03:57:41.651Z,1024.1
2024-02-02T04:00:09.934Z,1024.2
2024-02-02T04:01:24.118Z,1024.2
2024-02-02T04:06:20.611Z,1024.1
2024-02-02T04:11:17.100Z,1024.1
2024-02-02T04:19:56.086Z,1024.1
2024-02-02T04:21:10.240Z,1024.2
2024-02-02T04:24:36.393Z,1024.3
2024-02-02T04:30:46.884Z,1024.3
2024-02-02T04:34:29.492Z,1024.2
2024-02-02T04:41:54.050Z,1024.1
2024-02-02T04:44:22.379Z,1024.1
2024-02-02T04:46:50.560Z,1024.1
2024-02-02T04:49:19.005Z,1024
2024-02-02T04:51:47.087Z,1024
2024-02-02T04:54:15.410Z,1024
2024-02-02T04:56:43.634Z,1024
2024-02-02T05:00:26.077Z,1024
2024-02-02T05:04:08.458Z,1023.8
2024-02-02T05:06:36.763Z,1023.7
2024-02-02T05:09:04.977Z,1023.6
2024-02-02T05:14:01.484Z,1023.7
2024-02-02T05:16:29.736Z,1023.6
2024-02-02T05:20:12.155Z,1023.5
2024-02-02T05:23:57.984Z,1023.3
2024-02-02T05:28:51.724Z,1023.4
2024-02-02T05:35:02.002Z,1023.3
2024-02-02T05:36:16.102Z,1023.3
2024-02-02T05:38:52.342Z,1023.2
2024-02-02T05:45:03.067Z,1023.1
2024-02-02T05:46:17.273Z,1023
2024-02-02T05:48:45.505Z,1023
2024-02-02T05:54:56.075Z,1023
2024-02-02T05:58:38.467Z,1023
2024-02-02T06:04:49.355Z,1023
2024-02-02T06:06:03.337Z,1023
2024-02-02T06:13:28.062Z,1022.8
2024-02-02T06:15:56.478Z,1022.8
2024-02-02T06:18:24.726Z,1022.7
2024-02-02T06:23:21.161Z,1022.7
2024-02-02T06:25:49.416Z,1022.8
2024-02-02T06:33:14.327Z,1022.8
2024-02-02T06:38:10.740Z,1022.8
2024-02-02T06:40:38.987Z,1022.8
2024-02-02T06:43:07.260Z,1022.8
2024-02-02T06:45:35.775Z,1022.8
2024-02-02T06:49:18.018Z,1022.7
2024-02-02T06:50:32.051Z,1022.6
2024-02-02T06:53:00.334Z,1022.7
2024-02-02T06:55:28.665Z,1022.6
2024-02-02T06:59:10.984Z,1022.6
2024-02-02T07:00:25.296Z,1022.6
2024-02-02T07:02:53.843Z,1022.6
2024-02-02T07:05:21.652Z,1022.7
2024-02-02T07:07:49.911Z,1022.8
2024-02-02T07:10:18.174Z,1022.8
2024-02-02T07:15:14.758Z,1022.9
2024-02-02T07:17:43.014Z,1022.9
2024-02-02T07:20:11.404Z,1023
2024-02-02T07:25:07.760Z,1022.8
2024-02-02T07:30:04.360Z,1022.8
2024-02-02T07:32:32.693Z,1022.9
2024-02-02T07:35:01.087Z,1022.9
2024-02-02T07:38:26.849Z,1023
2024-02-02T07:43:23.402Z,1023
2024-02-02T07:48:20.028Z,1022.9
2024-02-02T07:52:02.323Z,1022.9
2024-02-02T07:53:16.484Z,1022.9
2024-02-02T07:56:58.916Z,1022.9
2024-02-02T07:58:12.992Z,1022.9
2024-02-02T08:01:55.774Z,1022.8
2024-02-02T08:03:12.215Z,1022.8
2024-02-02T08:06:52.076Z,1022.8
2024-02-02T08:11:48.464Z,1022
2024-02-02T08:13:02.598Z,1022.8
2024-02-02T08:16:44.965Z,1022.9
2024-02-02T08:17:59.278Z,1023
2024-02-02T08:21:41.582Z,1022.9
2024-02-02T08:22:55.658Z,1022.9
2024-02-02T08:27:52.187Z,1022.8
2024-02-02T08:31:34.634Z,1022.9
2024-02-02T08:34:02.953Z,1022.8
2024-02-02T08:41:27.642Z,1022.8
2024-02-02T08:42:41.843Z,1022.8
2024-02-02T08:46:24.420Z,1022.7
2024-02-02T08:47:38.341Z,1022.7
2024-02-02T08:51:04.377Z,1022.7
2024-02-02T08:56:00.846Z,1022.6
2024-02-02T09:00:57.524Z,1022.7
2024-02-02T09:03:25.816Z,1022.6
2024-02-02T09:07:08.101Z,1022.6
2024-02-02T09:08:22.196Z,1022.5
2024-02-02T09:10:50.450Z,1022.5
2024-02-02T09:17:01.166Z,1022.6
2024-02-02T09:20:43.510Z,1022.6
2024-02-02T09:23:11.816Z,1022.6
2024-02-02T09:25:40.067Z,1022.7
2024-02-02T09:28:08.333Z,1022.6
2024-02-02T09:30:36.635Z,1022.6
2024-02-02T09:33:04.986Z,1022.7
2024-02-02T09:35:33.125Z,1022.7
2024-02-02T09:38:01.400Z,1022.6
2024-02-02T09:41:43.780Z,1022.6
2024-02-02T09:43:00.195Z,1022.6
2024-02-02T09:45:26.298Z,1022.6
2024-02-02T09:47:54.603Z,1022.6
2024-02-02T09:50:22.830Z,1022.7
2024-02-02T09:55:19.248Z,1022.7
2024-02-02T10:03:58.241Z,1022.7
2024-02-02T10:05:12.299Z,1022.6
2024-02-02T10:12:37.162Z,1022.7
2024-02-02T10:16:03.154Z,1022.7
2024-02-02T10:22:13.921Z,1022.7
2024-02-02T10:24:42.115Z,1022.7
2024-02-02T10:25:56.196Z,1022.7
2024-02-02T10:29:38.604Z,1022.6
2024-02-02T10:32:06.870Z,1022.6
2024-02-02T10:35:49.273Z,1022.6
2024-02-02T10:39:31.692Z,1022.6
2024-02-02T10:40:45.900Z,1022.7
2024-02-02T10:44:28.312Z,1022.6
2024-02-02T10:49:24.908Z,1022.6
2024-02-02T10:54:21.279Z,1022.5
2024-02-02T10:59:17.793Z,1022.5
2024-02-02T11:04:14.395Z,1022.5
2024-02-02T11:05:28.460Z,1022.4
2024-02-02T11:09:10.889Z,1022.3
2024-02-02T11:10:24.992Z,1022.3
2024-02-02T11:14:07.379Z,1022.3
2024-02-02T11:16:35.689Z,1022.2
2024-02-02T11:20:18.053Z,1022.2
2024-02-02T11:26:28.717Z,1022
2024-02-02T11:30:11.133Z,1021.9
2024-02-02T11:33:53.674Z,1022
2024-02-02T11:40:04.168Z,1022
2024-02-02T11:46:14.832Z,1021.9
2024-02-02T11:48:43.273Z,1021.9
2024-02-02T11:49:57.493Z,1021.8
2024-02-02T11:58:19.789Z,1021.6
2024-02-02T12:00:48.190Z,1021.7
2024-02-02T12:03:16.399Z,1021.7
2024-02-02T12:08:12.867Z,1021.6
2024-02-02T12:10:41.128Z,1021.6
2024-02-02T12:13:09.383Z,1021.6
2024-02-02T12:18:05.972Z,1021.6
2024-02-02T12:20:34.484Z,1020.8
2024-02-02T12:23:02.464Z,1021.6
2024-02-02T12:25:31.057Z,1021.6
2024-02-02T12:27:59.018Z,1021.4
2024-02-02T12:30:27.267Z,1021.5
2024-02-02T12:34:09.799Z,1021.4
2024-02-02T12:37:52.276Z,1021.4
2024-02-02T12:40:20.323Z,1021.5
2024-02-02T12:42:48.680Z,1021.5
2024-02-02T12:47:45.212Z,1021.5
2024-02-02T12:50:13.435Z,1021.6
2024-02-02T12:52:41.996Z,1021.6
2024-02-02T12:55:09.898Z,1021.6
2024-02-02T12:57:38.221Z,1021.6
2024-02-02T13:00:06.483Z,1021.6
2024-02-02T13:03:49.014Z,1021.5
2024-02-02T13:07:31.336Z,1021.5
2024-02-02T13:09:59.621Z,1021.5
2024-02-02T13:13:41.890Z,1021.4
2024-02-02T13:16:10.176Z,1021.4
2024-02-02T13:17:24.310Z,1021.4
2024-02-02T13:22:20.865Z,1021.3
2024-02-02T13:27:17.417Z,1021.3
2024-02-02T13:29:45.649Z,1021.1
2024-02-02T13:32:13.929Z,1021.1
2024-02-02T13:38:24.576Z,1021.1
2024-02-02T13:39:38.741Z,1021.1
2024-02-02T13:44:18.870Z,1021.2
2024-02-02T13:49:15.492Z,1021.2
2024-02-02T13:52:57.791Z,1021.1
2024-02-02T13:58:02.573Z,1021
2024-02-02T14:01:44.896Z,1020.8
2024-02-02T14:04:13.501Z,1020.7
2024-02-02T14:23:59.352Z,1020.6
2024-02-02T14:27:41.788Z,1020.6
2024-02-02T14:31:24.103Z,1020.6
2024-02-02T14:33:52.533Z,1020.6
2024-02-02T14:37:34.781Z,1020.6
2024-02-02T14:38:48.956Z,1020.7
2024-02-02T14:41:17.195Z,1020.7
2024-02-02T14:48:42.110Z,1020.8
2024-02-02T14:56:06.761Z,1020.6
2024-02-02T15:02:17.451Z,1020.5
2024-02-02T15:03:31.662Z,1020.6
2024-02-02T15:06:00.102Z,1020.5
2024-02-02T15:08:28.097Z,1020.4
2024-02-02T15:10:56.385Z,1020.4
2024-02-02T15:15:52.970Z,1020.5
2024-02-02T15:18:21.319Z,1020.5
2024-02-02T15:20:49.443Z,1020.5
2024-02-02T15:23:17.712Z,1020.5
2024-02-02T15:27:00.246Z,1020.5
2024-02-02T15:30:42.590Z,1020.4
2024-02-02T15:35:39.041Z,1020.5
2024-02-02T15:41:49.691Z,1020.5
2024-02-02T15:55:25.153Z,1020.5
2024-02-02T16:00:21.749Z,1020.6
2024-02-02T16:05:18.220Z,1020.5
2024-02-02T16:11:28.901Z,1020.5
2024-02-02T16:21:21.983Z,1020.4
2024-02-02T16:32:29.171Z,1020.4
2024-02-02T16:41:08.092Z,1020.4
2024-02-02T16:44:50.477Z,1020.5
2024-02-02T16:54:43.659Z,1020.5
2024-02-02T16:55:57.691Z,1020.5
2024-02-02T16:59:40.093Z,1020.5
2024-02-02T17:00:54.589Z,1020.6
2024-02-02T17:04:36.702Z,1020.7
2024-02-02T17:05:50.787Z,1020.6
2024-02-02T17:10:47.289Z,1020.5
2024-02-02T17:15:27.445Z,1020.6
2024-02-02T17:20:23.973Z,1020.5
2024-02-02T17:24:06.387Z,1020.6
2024-02-02T17:26:37.275Z,1019.8
2024-02-02T17:29:07.767Z,1020.6
2024-02-02T17:35:13.618Z,1020.6
2024-02-02T17:36:27.755Z,1020.6
2024-02-02T17:38:55.994Z,1020.6
2024-02-02T17:43:52.520Z,1020.6
2024-02-02T17:46:20.866Z,1020.6
2024-02-02T17:48:49.195Z,1020.6
2024-02-02T17:51:17.354Z,1020.6
2024-02-02T17:53:45.557Z,1020.5
2024-02-02T17:56:13.810Z,1020.4
2024-02-02T17:58:42.110Z,1020.5
2024-02-02T18:04:52.789Z,1020.5
2024-02-02T18:09:49.285Z,1020.6
2024-02-02T18:11:03.424Z,1020.6
2024-02-02T18:14:46.171Z,1020.5
2024-02-02T18:24:38.917Z,1020.7
2024-02-02T18:30:49.613Z,1020.6
2024-02-02T18:34:32.101Z,1020.8
2024-02-02T18:35:46.057Z,1020.7
2024-02-02T18:38:14.367Z,1020.7
2024-02-02T18:43:10.877Z,1020.7
2024-02-02T18:45:39.209Z,1020.7
2024-02-02T18:48:07.602Z,1020.7
2024-02-02T18:53:04.002Z,1020.7
2024-02-02T18:55:32.216Z,1020.7
2024-02-02T18:59:14.615Z,1020.7
2024-02-02T19:00:28.778Z,1020.7
2024-02-02T19:02:57.010Z,1020.7
2024-02-02T19:09:07.807Z,1020.7
2024-02-02T19:17:46.628Z,1020.6
2024-02-02T19:22:43.145Z,1020.7
2024-02-02T19:26:25.600Z,1020.7
2024-02-02T19:32:36.282Z,1020.9
2024-02-02T19:36:18.650Z,1020.8
2024-02-02T19:37:32.742Z,1020.9
2024-02-02T19:40:01.036Z,1020.9
2024-02-02T19:44:57.545Z,1020.9
2024-02-02T19:48:40.029Z,1021
2024-02-02T19:52:22.429Z,1021
2024-02-02T19:57:18.905Z,1021
2024-02-02T20:01:59.029Z,1021
2024-02-02T20:03:13.190Z,1021
2024-02-02T20:09:23.866Z,1020.9
2024-02-02T20:11:52.113Z,1021
2024-02-02T20:18:03.231Z,1021
2024-02-02T20:22:59.299Z,1020.9
2024-02-02T20:26:41.678Z,1021
2024-02-02T20:29:09.979Z,1021
2024-02-02T20:31:38.218Z,1021
2024-02-02T20:32:53.637Z,1021
2024-02-02T20:36:34.771Z,1021
2024-02-02T20:37:48.914Z,1021.1
2024-02-02T20:41:31.293Z,1021.1
2024-02-02T20:42:45.546Z,1021.1
2024-02-02T20:46:27.835Z,1021.1
2024-02-02T20:47:41.965Z,1021.1
2024-02-02T20:53:52.645Z,1021.2
2024-02-02T21:01:17.635Z,1021.1
2024-02-02T21:02:31.567Z,1021.1
2024-02-02T21:06:14.163Z,1021.1
2024-02-02T21:07:28.222Z,1021.1
2024-02-02T21:11:10.457Z,1021
2024-02-02T21:13:38.743Z,1020.9
2024-02-02T21:16:07.017Z,1020.9
2024-02-02T21:18:35.342Z,1021
2024-02-02T21:22:17.834Z,1021
2024-02-02T21:23:31.805Z,1021
2024-02-02T21:26:00.077Z,1021
2024-02-02T21:30:40.253Z,1021
2024-02-02T21:33:08.565Z,1021
2024-02-02T21:35:36.773Z,1021
2024-02-02T21:40:33.379Z,1020.8
2024-02-02T21:43:01.547Z,1020.8
2024-02-02T21:55:22.881Z,1020.8
2024-02-02T22:00:19.509Z,1020.8
2024-02-02T22:02:47.667Z,1020.8
2024-02-02T22:07:52.457Z,1020.8
2024-02-02T22:12:48.975Z,1020.6
2024-02-02T22:17:53.707Z,1020.7
2024-02-02T22:21:36.242Z,1020.7
2024-02-02T22:27:55.022Z,1020.8
2024-02-02T22:30:23.228Z,1020.9
2024-02-02T22:32:51.496Z,1020.9
2024-02-02T22:40:16.258Z,1020.9
2024-02-02T22:55:05.861Z,1020.9
2024-02-02T23:00:06.007Z,1020.9
2024-02-02T23:02:30.668Z,1020.9
2024-02-02T23:04:59.028Z,1020.9
2024-02-02T23:09:55.444Z,1020.8
2024-02-02T23:14:52.010Z,1020.9
2024-02-02T23:19:48.611Z,1020.7
2024-02-02T23:25:59.186Z,1020.8
2024-02-02T23:27:13.337Z,1020.8
2024-02-02T23:29:41.579Z,1020.8
2024-02-02T23:34:38.258Z,1020.7
2024-02-02T23:37:06.383Z,1020.7
2024-02-02T23:40:48.777Z,1019.8
2024-02-02T23:42:02.925Z,1020.8
2024-02-02T23:45:45.351Z,1020.8
2024-02-02T23:49:27.823Z,1020.9
2024-02-02T23:51:56.018Z,1020.8
2024-02-02T23:54:24.284Z,1020.8
2024-02-02T23:59:20.780Z,1020.6
